sensor_id;sensor_type;location;lat;lon;timestamp;P1;durP1;ratioP1;P2;durP2;ratioP2
34236;SDS011;20501;45.956;13.632;2023-07-13T00:02:04;5.43;;;2.57;;
34236;SDS011;20501;45.956;13.632;2023-07-13T00:04:30;4.28;;;2.45;;
34236;SDS011;20501;45.956;13.632;2023-07-13T00:06:55;4.07;;;2.30;;
34236;SDS011;20501;45.956;13.632;2023-07-13T00:09:21;4.90;;;2.53;;
34236;SDS011;20501;45.956;13.632;2023-07-13T00:11:50;8.05;;;2.92;;
34236;SDS011;20501;45.956;13.632;2023-07-13T00:14:17;4.93;;;2.30;;
34236;SDS011;20501;45.956;13.632;2023-07-13T00:16:42;6.80;;;2.50;;
34236;SDS011;20501;45.956;13.632;2023-07-13T00:19:11;8.13;;;2.50;;
34236;SDS011;20501;45.956;13.632;2023-07-13T00:21:38;5.25;;;2.20;;
34236;SDS011;20501;45.956;13.632;2023-07-13T00:24:05;3.33;;;2.53;;
34236;SDS011;20501;45.956;13.632;2023-07-13T00:26:32;6.20;;;2.17;;
34236;SDS011;20501;45.956;13.632;2023-07-13T00:28:58;3.03;;;1.37;;
34236;SDS011;20501;45.956;13.632;2023-07-13T00:31:24;6.03;;;1.77;;
34236;SDS011;20501;45.956;13.632;2023-07-13T00:33:50;2.58;;;1.20;;
34236;SDS011;20501;45.956;13.632;2023-07-13T00:36:16;2.35;;;1.33;;
34236;SDS011;20501;45.956;13.632;2023-07-13T00:38:42;1.92;;;1.60;;
34236;SDS011;20501;45.956;13.632;2023-07-13T00:41:07;1.47;;;1.20;;
34236;SDS011;20501;45.956;13.632;2023-07-13T00:43:33;4.53;;;1.63;;
34236;SDS011;20501;45.956;13.632;2023-07-13T00:48:29;1.80;;;1.70;;
34236;SDS011;20501;45.956;13.632;2023-07-13T00:50:58;4.63;;;1.85;;
34236;SDS011;20501;45.956;13.632;2023-07-13T00:53:26;2.70;;;1.90;;
34236;SDS011;20501;45.956;13.632;2023-07-13T00:55:54;2.05;;;1.23;;
34236;SDS011;20501;45.956;13.632;2023-07-13T01:00:47;5.97;;;1.90;;
34236;SDS011;20501;45.956;13.632;2023-07-13T01:03:14;9.57;;;3.28;;
34236;SDS011;20501;45.956;13.632;2023-07-13T01:05:40;3.95;;;2.17;;
34236;SDS011;20501;45.956;13.632;2023-07-13T01:08:05;3.70;;;1.42;;
34236;SDS011;20501;45.956;13.632;2023-07-13T01:10:31;4.85;;;1.90;;
34236;SDS011;20501;45.956;13.632;2023-07-13T01:13:04;3.17;;;1.88;;
34236;SDS011;20501;45.956;13.632;2023-07-13T01:18:00;3.80;;;1.80;;
34236;SDS011;20501;45.956;13.632;2023-07-13T01:20:26;3.03;;;2.03;;
34236;SDS011;20501;45.956;13.632;2023-07-13T01:22:51;7.90;;;2.55;;
34236;SDS011;20501;45.956;13.632;2023-07-13T01:25:18;3.38;;;1.50;;
34236;SDS011;20501;45.956;13.632;2023-07-13T01:27:44;7.68;;;2.25;;
34236;SDS011;20501;45.956;13.632;2023-07-13T01:30:09;3.13;;;1.63;;
34236;SDS011;20501;45.956;13.632;2023-07-13T01:32:35;2.38;;;1.75;;
34236;SDS011;20501;45.956;13.632;2023-07-13T01:35:02;4.32;;;1.85;;
34236;SDS011;20501;45.956;13.632;2023-07-13T01:37:28;2.90;;;1.58;;
34236;SDS011;20501;45.956;13.632;2023-07-13T01:39:58;2.50;;;1.50;;
34236;SDS011;20501;45.956;13.632;2023-07-13T01:42:24;2.28;;;1.60;;
34236;SDS011;20501;45.956;13.632;2023-07-13T01:44:49;2.10;;;1.88;;
34236;SDS011;20501;45.956;13.632;2023-07-13T01:47:15;4.85;;;1.67;;
34236;SDS011;20501;45.956;13.632;2023-07-13T01:49:40;2.70;;;1.88;;
34236;SDS011;20501;45.956;13.632;2023-07-13T01:52:06;4.13;;;2.33;;
34236;SDS011;20501;45.956;13.632;2023-07-13T01:54:32;2.38;;;1.70;;
34236;SDS011;20501;45.956;13.632;2023-07-13T01:59:24;2.92;;;1.83;;
34236;SDS011;20501;45.956;13.632;2023-07-13T02:01:49;3.10;;;1.40;;
34236;SDS011;20501;45.956;13.632;2023-07-13T02:04:15;2.67;;;1.60;;
34236;SDS011;20501;45.956;13.632;2023-07-13T02:06:40;2.30;;;1.40;;
34236;SDS011;20501;45.956;13.632;2023-07-13T02:09:06;3.75;;;1.88;;
34236;SDS011;20501;45.956;13.632;2023-07-13T02:11:32;8.25;;;1.60;;
34236;SDS011;20501;45.956;13.632;2023-07-13T02:14:01;6.13;;;1.73;;
34236;SDS011;20501;45.956;13.632;2023-07-13T02:16:28;3.15;;;1.33;;
34236;SDS011;20501;45.956;13.632;2023-07-13T02:18:54;5.60;;;1.50;;
34236;SDS011;20501;45.956;13.632;2023-07-13T02:21:21;2.25;;;1.20;;
34236;SDS011;20501;45.956;13.632;2023-07-13T02:23:48;2.72;;;1.45;;
34236;SDS011;20501;45.956;13.632;2023-07-13T02:26:14;6.60;;;1.67;;
34236;SDS011;20501;45.956;13.632;2023-07-13T02:28:40;2.97;;;1.80;;
34236;SDS011;20501;45.956;13.632;2023-07-13T02:31:09;3.53;;;1.63;;
34236;SDS011;20501;45.956;13.632;2023-07-13T02:33:36;2.60;;;1.40;;
34236;SDS011;20501;45.956;13.632;2023-07-13T02:36:02;2.38;;;2.17;;
34236;SDS011;20501;45.956;13.632;2023-07-13T02:38:28;2.45;;;1.63;;
34236;SDS011;20501;45.956;13.632;2023-07-13T02:40:54;2.80;;;1.58;;
34236;SDS011;20501;45.956;13.632;2023-07-13T02:43:19;4.55;;;1.63;;
34236;SDS011;20501;45.956;13.632;2023-07-13T02:45:45;3.70;;;1.65;;
34236;SDS011;20501;45.956;13.632;2023-07-13T02:48:12;4.28;;;2.03;;
34236;SDS011;20501;45.956;13.632;2023-07-13T02:50:39;3.40;;;1.83;;
34236;SDS011;20501;45.956;13.632;2023-07-13T02:53:04;3.95;;;2.00;;
34236;SDS011;20501;45.956;13.632;2023-07-13T02:55:30;4.75;;;1.88;;
34236;SDS011;20501;45.956;13.632;2023-07-13T02:57:55;2.55;;;1.92;;
34236;SDS011;20501;45.956;13.632;2023-07-13T03:00:20;2.08;;;1.45;;
34236;SDS011;20501;45.956;13.632;2023-07-13T03:02:46;4.20;;;1.77;;
34236;SDS011;20501;45.956;13.632;2023-07-13T03:05:11;2.15;;;1.60;;
34236;SDS011;20501;45.956;13.632;2023-07-13T03:07:37;3.75;;;1.98;;
34236;SDS011;20501;45.956;13.632;2023-07-13T03:10:04;2.78;;;1.65;;
34236;SDS011;20501;45.956;13.632;2023-07-13T03:12:31;4.47;;;1.90;;
34236;SDS011;20501;45.956;13.632;2023-07-13T03:14:56;2.00;;;1.50;;
34236;SDS011;20501;45.956;13.632;2023-07-13T03:17:22;3.78;;;1.60;;
34236;SDS011;20501;45.956;13.632;2023-07-13T03:19:48;2.47;;;1.52;;
34236;SDS011;20501;45.956;13.632;2023-07-13T03:22:18;4.53;;;1.60;;
34236;SDS011;20501;45.956;13.632;2023-07-13T03:24:44;2.67;;;1.75;;
34236;SDS011;20501;45.956;13.632;2023-07-13T03:27:10;3.60;;;2.17;;
34236;SDS011;20501;45.956;13.632;2023-07-13T03:29:36;3.53;;;1.38;;
34236;SDS011;20501;45.956;13.632;2023-07-13T03:32:01;2.30;;;1.42;;
34236;SDS011;20501;45.956;13.632;2023-07-13T03:34:27;3.22;;;1.52;;
34236;SDS011;20501;45.956;13.632;2023-07-13T03:36:56;2.30;;;1.60;;
34236;SDS011;20501;45.956;13.632;2023-07-13T03:39:21;12.82;;;1.92;;
34236;SDS011;20501;45.956;13.632;2023-07-13T03:41:47;4.20;;;1.57;;
34236;SDS011;20501;45.956;13.632;2023-07-13T03:44:13;2.00;;;1.48;;
34236;SDS011;20501;45.956;13.632;2023-07-13T03:46:41;3.08;;;1.40;;
34236;SDS011;20501;45.956;13.632;2023-07-13T03:49:06;2.55;;;1.60;;
34236;SDS011;20501;45.956;13.632;2023-07-13T03:51:32;2.78;;;1.00;;
34236;SDS011;20501;45.956;13.632;2023-07-13T03:53:58;1.83;;;1.30;;
34236;SDS011;20501;45.956;13.632;2023-07-13T03:56:23;4.18;;;1.08;;
34236;SDS011;20501;45.956;13.632;2023-07-13T03:58:49;1.23;;;0.95;;
34236;SDS011;20501;45.956;13.632;2023-07-13T04:01:16;2.97;;;1.65;;
34236;SDS011;20501;45.956;13.632;2023-07-13T04:03:43;2.10;;;1.13;;
34236;SDS011;20501;45.956;13.632;2023-07-13T04:06:14;2.00;;;0.98;;
34236;SDS011;20501;45.956;13.632;2023-07-13T04:08:50;4.70;;;1.58;;
34236;SDS011;20501;45.956;13.632;2023-07-13T04:11:18;3.88;;;1.50;;
34236;SDS011;20501;45.956;13.632;2023-07-13T04:13:44;1.90;;;1.13;;
34236;SDS011;20501;45.956;13.632;2023-07-13T04:16:10;1.23;;;1.13;;
34236;SDS011;20501;45.956;13.632;2023-07-13T04:18:36;1.70;;;1.27;;
34236;SDS011;20501;45.956;13.632;2023-07-13T04:21:01;1.33;;;0.93;;
34236;SDS011;20501;45.956;13.632;2023-07-13T04:23:27;2.40;;;1.25;;
34236;SDS011;20501;45.956;13.632;2023-07-13T04:25:52;2.47;;;1.10;;
34236;SDS011;20501;45.956;13.632;2023-07-13T04:28:22;1.65;;;1.00;;
34236;SDS011;20501;45.956;13.632;2023-07-13T04:30:49;4.57;;;1.80;;
34236;SDS011;20501;45.956;13.632;2023-07-13T04:33:15;2.28;;;1.27;;
34236;SDS011;20501;45.956;13.632;2023-07-13T04:35:47;3.13;;;1.25;;
34236;SDS011;20501;45.956;13.632;2023-07-13T04:38:14;1.33;;;1.00;;
34236;SDS011;20501;45.956;13.632;2023-07-13T04:40:42;4.75;;;1.30;;
34236;SDS011;20501;45.956;13.632;2023-07-13T04:43:10;4.85;;;1.75;;
34236;SDS011;20501;45.956;13.632;2023-07-13T04:45:35;2.05;;;1.10;;
34236;SDS011;20501;45.956;13.632;2023-07-13T04:48:01;1.73;;;1.45;;
34236;SDS011;20501;45.956;13.632;2023-07-13T04:50:26;3.47;;;1.50;;
34236;SDS011;20501;45.956;13.632;2023-07-13T04:52:52;1.48;;;1.05;;
34236;SDS011;20501;45.956;13.632;2023-07-13T04:55:18;2.22;;;1.00;;
34236;SDS011;20501;45.956;13.632;2023-07-13T05:00:10;2.80;;;1.33;;
34236;SDS011;20501;45.956;13.632;2023-07-13T05:02:37;4.80;;;2.05;;
34236;SDS011;20501;45.956;13.632;2023-07-13T05:07:29;2.15;;;1.23;;
34236;SDS011;20501;45.956;13.632;2023-07-13T05:09:55;3.05;;;1.52;;
34236;SDS011;20501;45.956;13.632;2023-07-13T05:12:21;3.42;;;1.30;;
34236;SDS011;20501;45.956;13.632;2023-07-13T05:14:46;2.08;;;1.02;;
34236;SDS011;20501;45.956;13.632;2023-07-13T05:17:13;2.33;;;1.50;;
34236;SDS011;20501;45.956;13.632;2023-07-13T05:19:39;0.95;;;0.90;;
34236;SDS011;20501;45.956;13.632;2023-07-13T05:22:04;3.50;;;1.75;;
34236;SDS011;20501;45.956;13.632;2023-07-13T05:24:30;1.45;;;1.00;;
34236;SDS011;20501;45.956;13.632;2023-07-13T05:26:55;1.77;;;1.23;;
34236;SDS011;20501;45.956;13.632;2023-07-13T05:29:21;3.65;;;1.40;;
34236;SDS011;20501;45.956;13.632;2023-07-13T05:31:47;1.50;;;1.40;;
34236;SDS011;20501;45.956;13.632;2023-07-13T05:34:13;1.63;;;1.30;;
34236;SDS011;20501;45.956;13.632;2023-07-13T05:36:40;2.85;;;1.27;;
34236;SDS011;20501;45.956;13.632;2023-07-13T05:39:05;2.60;;;1.48;;
34236;SDS011;20501;45.956;13.632;2023-07-13T05:41:31;4.28;;;1.63;;
34236;SDS011;20501;45.956;13.632;2023-07-13T05:43:56;1.70;;;1.27;;
34236;SDS011;20501;45.956;13.632;2023-07-13T05:46:22;1.80;;;0.93;;
34236;SDS011;20501;45.956;13.632;2023-07-13T05:48:47;6.10;;;2.00;;
34236;SDS011;20501;45.956;13.632;2023-07-13T05:51:13;2.40;;;1.55;;
34236;SDS011;20501;45.956;13.632;2023-07-13T05:53:38;1.85;;;1.33;;
34236;SDS011;20501;45.956;13.632;2023-07-13T05:56:04;1.75;;;1.40;;
34236;SDS011;20501;45.956;13.632;2023-07-13T05:58:30;2.47;;;1.70;;
34236;SDS011;20501;45.956;13.632;2023-07-13T06:01:03;3.47;;;1.25;;
34236;SDS011;20501;45.956;13.632;2023-07-13T06:03:31;4.00;;;1.67;;
34236;SDS011;20501;45.956;13.632;2023-07-13T06:05:57;3.40;;;1.77;;
34236;SDS011;20501;45.956;13.632;2023-07-13T06:08:22;1.88;;;1.33;;
34236;SDS011;20501;45.956;13.632;2023-07-13T06:10:47;4.53;;;1.20;;
34236;SDS011;20501;45.956;13.632;2023-07-13T06:13:13;1.67;;;1.25;;
34236;SDS011;20501;45.956;13.632;2023-07-13T06:15:38;4.00;;;2.03;;
34236;SDS011;20501;45.956;13.632;2023-07-13T06:18:04;2.58;;;1.55;;
34236;SDS011;20501;45.956;13.632;2023-07-13T06:20:29;2.60;;;0.88;;
34236;SDS011;20501;45.956;13.632;2023-07-13T06:22:55;1.85;;;1.27;;
34236;SDS011;20501;45.956;13.632;2023-07-13T06:25:20;1.45;;;1.15;;
34236;SDS011;20501;45.956;13.632;2023-07-13T06:27:46;3.90;;;1.20;;
34236;SDS011;20501;45.956;13.632;2023-07-13T06:30:11;3.10;;;1.55;;
34236;SDS011;20501;45.956;13.632;2023-07-13T06:32:37;2.38;;;1.00;;
34236;SDS011;20501;45.956;13.632;2023-07-13T06:35:03;4.20;;;1.30;;
34236;SDS011;20501;45.956;13.632;2023-07-13T06:37:29;5.63;;;1.90;;
34236;SDS011;20501;45.956;13.632;2023-07-13T06:39:54;2.23;;;1.60;;
34236;SDS011;20501;45.956;13.632;2023-07-13T06:42:19;3.80;;;1.15;;
34236;SDS011;20501;45.956;13.632;2023-07-13T06:44:45;2.65;;;1.40;;
34236;SDS011;20501;45.956;13.632;2023-07-13T06:47:10;3.17;;;1.70;;
34236;SDS011;20501;45.956;13.632;2023-07-13T06:49:36;1.63;;;1.40;;
34236;SDS011;20501;45.956;13.632;2023-07-13T06:52:01;5.28;;;1.67;;
34236;SDS011;20501;45.956;13.632;2023-07-13T06:54:27;3.20;;;1.52;;
34236;SDS011;20501;45.956;13.632;2023-07-13T06:56:52;6.47;;;1.65;;
34236;SDS011;20501;45.956;13.632;2023-07-13T06:59:18;1.87;;;1.40;;
34236;SDS011;20501;45.956;13.632;2023-07-13T07:01:44;6.47;;;1.50;;
34236;SDS011;20501;45.956;13.632;2023-07-13T07:04:09;3.33;;;1.92;;
34236;SDS011;20501;45.956;13.632;2023-07-13T07:06:35;1.75;;;1.33;;
34236;SDS011;20501;45.956;13.632;2023-07-13T07:09:00;1.92;;;1.23;;
34236;SDS011;20501;45.956;13.632;2023-07-13T07:11:26;3.25;;;1.48;;
34236;SDS011;20501;45.956;13.632;2023-07-13T07:13:52;1.52;;;0.95;;
34236;SDS011;20501;45.956;13.632;2023-07-13T07:16:18;2.00;;;1.20;;
34236;SDS011;20501;45.956;13.632;2023-07-13T07:18:45;4.57;;;1.77;;
34236;SDS011;20501;45.956;13.632;2023-07-13T07:21:11;1.70;;;1.10;;
34236;SDS011;20501;45.956;13.632;2023-07-13T07:23:37;2.27;;;1.27;;
34236;SDS011;20501;45.956;13.632;2023-07-13T07:26:02;2.33;;;1.53;;
34236;SDS011;20501;45.956;13.632;2023-07-13T07:28:28;3.63;;;1.48;;
34236;SDS011;20501;45.956;13.632;2023-07-13T07:30:55;3.72;;;1.50;;
34236;SDS011;20501;45.956;13.632;2023-07-13T07:33:22;2.58;;;1.30;;
34236;SDS011;20501;45.956;13.632;2023-07-13T07:35:48;2.65;;;1.23;;
34236;SDS011;20501;45.956;13.632;2023-07-13T07:38:13;2.95;;;1.17;;
34236;SDS011;20501;45.956;13.632;2023-07-13T07:40:40;3.63;;;1.23;;
34236;SDS011;20501;45.956;13.632;2023-07-13T07:43:06;3.55;;;1.45;;
34236;SDS011;20501;45.956;13.632;2023-07-13T07:45:32;3.88;;;2.13;;
34236;SDS011;20501;45.956;13.632;2023-07-13T07:47:58;2.03;;;1.38;;
34236;SDS011;20501;45.956;13.632;2023-07-13T07:50:24;3.80;;;1.65;;
34236;SDS011;20501;45.956;13.632;2023-07-13T07:52:51;2.63;;;1.65;;
34236;SDS011;20501;45.956;13.632;2023-07-13T07:55:16;2.85;;;1.33;;
34236;SDS011;20501;45.956;13.632;2023-07-13T07:57:42;7.53;;;1.58;;
34236;SDS011;20501;45.956;13.632;2023-07-13T08:00:07;2.50;;;1.83;;
34236;SDS011;20501;45.956;13.632;2023-07-13T08:02:33;4.22;;;1.80;;
34236;SDS011;20501;45.956;13.632;2023-07-13T08:04:59;3.40;;;2.00;;
34236;SDS011;20501;45.956;13.632;2023-07-13T08:07:24;2.00;;;1.60;;
34236;SDS011;20501;45.956;13.632;2023-07-13T08:09:52;2.47;;;1.83;;
34236;SDS011;20501;45.956;13.632;2023-07-13T08:12:18;4.38;;;1.98;;
34236;SDS011;20501;45.956;13.632;2023-07-13T08:14:43;3.73;;;2.53;;
34236;SDS011;20501;45.956;13.632;2023-07-13T08:17:09;2.73;;;2.13;;
34236;SDS011;20501;45.956;13.632;2023-07-13T08:19:34;3.88;;;1.98;;
34236;SDS011;20501;45.956;13.632;2023-07-13T08:21:59;9.20;;;3.85;;
34236;SDS011;20501;45.956;13.632;2023-07-13T08:24:25;2.37;;;2.00;;
34236;SDS011;20501;45.956;13.632;2023-07-13T08:26:51;3.92;;;2.38;;
34236;SDS011;20501;45.956;13.632;2023-07-13T08:29:17;3.60;;;2.00;;
34236;SDS011;20501;45.956;13.632;2023-07-13T08:31:43;5.23;;;2.13;;
34236;SDS011;20501;45.956;13.632;2023-07-13T08:34:08;5.00;;;2.43;;
34236;SDS011;20501;45.956;13.632;2023-07-13T08:36:34;3.92;;;2.60;;
34236;SDS011;20501;45.956;13.632;2023-07-13T08:38:59;2.65;;;2.05;;
34236;SDS011;20501;45.956;13.632;2023-07-13T08:41:25;3.53;;;1.88;;
34236;SDS011;20501;45.956;13.632;2023-07-13T08:43:53;3.33;;;2.30;;
34236;SDS011;20501;45.956;13.632;2023-07-13T08:49:03;5.82;;;2.40;;
34236;SDS011;20501;45.956;13.632;2023-07-13T08:59:15;4.13;;;2.33;;
34236;SDS011;20501;45.956;13.632;2023-07-13T09:02:00;7.13;;;2.95;;
34236;SDS011;20501;45.956;13.632;2023-07-13T09:04:36;5.18;;;2.83;;
34236;SDS011;20501;45.956;13.632;2023-07-13T09:12:35;5.32;;;3.13;;
34236;SDS011;20501;45.956;13.632;2023-07-13T09:15:03;4.78;;;2.75;;
34236;SDS011;20501;45.956;13.632;2023-07-13T09:22:54;6.03;;;2.70;;
34236;SDS011;20501;45.956;13.632;2023-07-13T09:25:27;3.95;;;2.40;;
34236;SDS011;20501;45.956;13.632;2023-07-13T09:27:57;2.80;;;1.98;;
34236;SDS011;20501;45.956;13.632;2023-07-13T09:30:36;2.95;;;1.92;;
34236;SDS011;20501;45.956;13.632;2023-07-13T09:33:04;6.18;;;2.63;;
34236;SDS011;20501;45.956;13.632;2023-07-13T09:35:29;4.17;;;2.73;;
34236;SDS011;20501;45.956;13.632;2023-07-13T09:38:02;3.22;;;2.00;;
34236;SDS011;20501;45.956;13.632;2023-07-13T09:43:10;4.13;;;2.67;;
34236;SDS011;20501;45.956;13.632;2023-07-13T09:45:40;4.90;;;3.35;;
34236;SDS011;20501;45.956;13.632;2023-07-13T09:48:07;6.93;;;2.53;;
34236;SDS011;20501;45.956;13.632;2023-07-13T09:50:36;8.00;;;2.78;;
34236;SDS011;20501;45.956;13.632;2023-07-13T09:53:02;5.07;;;3.13;;
34236;SDS011;20501;45.956;13.632;2023-07-13T09:55:32;3.47;;;3.00;;
34236;SDS011;20501;45.956;13.632;2023-07-13T09:58:20;4.95;;;3.20;;
34236;SDS011;20501;45.956;13.632;2023-07-13T10:00:56;6.20;;;4.03;;
34236;SDS011;20501;45.956;13.632;2023-07-13T10:03:30;5.20;;;2.78;;
34236;SDS011;20501;45.956;13.632;2023-07-13T10:08:43;3.30;;;2.20;;
34236;SDS011;20501;45.956;13.632;2023-07-13T10:13:55;6.40;;;2.83;;
34236;SDS011;20501;45.956;13.632;2023-07-13T10:16:27;7.40;;;3.35;;
34236;SDS011;20501;45.956;13.632;2023-07-13T10:19:00;5.90;;;2.55;;
34236;SDS011;20501;45.956;13.632;2023-07-13T10:22:12;2.97;;;2.45;;
34236;SDS011;20501;45.956;13.632;2023-07-13T10:24:25;4.03;;;2.90;;
34236;SDS011;20501;45.956;13.632;2023-07-13T10:27:03;3.83;;;2.40;;
34236;SDS011;20501;45.956;13.632;2023-07-13T10:30:02;3.03;;;2.55;;
34236;SDS011;20501;45.956;13.632;2023-07-13T10:32:33;4.25;;;3.33;;
34236;SDS011;20501;45.956;13.632;2023-07-13T10:34:59;7.50;;;2.93;;
34236;SDS011;20501;45.956;13.632;2023-07-13T10:37:27;6.65;;;4.03;;
34236;SDS011;20501;45.956;13.632;2023-07-13T10:39:56;5.13;;;3.03;;
34236;SDS011;20501;45.956;13.632;2023-07-13T10:42:29;5.57;;;2.78;;
34236;SDS011;20501;45.956;13.632;2023-07-13T10:45:00;3.92;;;2.97;;
34236;SDS011;20501;45.956;13.632;2023-07-13T10:47:26;4.90;;;3.03;;
34236;SDS011;20501;45.956;13.632;2023-07-13T10:52:40;5.88;;;3.97;;
34236;SDS011;20501;45.956;13.632;2023-07-13T10:55:38;6.90;;;3.35;;
34236;SDS011;20501;45.956;13.632;2023-07-13T11:03:31;6.43;;;4.55;;
34236;SDS011;20501;45.956;13.632;2023-07-13T11:18:49;8.93;;;5.97;;
34236;SDS011;20501;45.956;13.632;2023-07-13T11:21:41;7.28;;;5.43;;
34236;SDS011;20501;45.956;13.632;2023-07-13T11:24:28;5.38;;;4.25;;
34236;SDS011;20501;45.956;13.632;2023-07-13T11:26:55;8.60;;;4.70;;
34236;SDS011;20501;45.956;13.632;2023-07-13T11:31:53;8.50;;;3.45;;
34236;SDS011;20501;45.956;13.632;2023-07-13T11:34:25;9.02;;;4.22;;
34236;SDS011;20501;45.956;13.632;2023-07-13T11:36:55;6.38;;;3.30;;
34236;SDS011;20501;45.956;13.632;2023-07-13T11:39:33;7.63;;;3.67;;
34236;SDS011;20501;45.956;13.632;2023-07-13T11:42:10;6.90;;;4.03;;
34236;SDS011;20501;45.956;13.632;2023-07-13T11:44:41;9.55;;;4.40;;
34236;SDS011;20501;45.956;13.632;2023-07-13T11:47:18;5.43;;;3.17;;
34236;SDS011;20501;45.956;13.632;2023-07-13T11:49:49;5.85;;;4.07;;
34236;SDS011;20501;45.956;13.632;2023-07-13T11:52:18;6.45;;;3.38;;
34236;SDS011;20501;45.956;13.632;2023-07-13T11:54:50;7.43;;;4.43;;
34236;SDS011;20501;45.956;13.632;2023-07-13T11:57:30;8.55;;;5.15;;
34236;SDS011;20501;45.956;13.632;2023-07-13T12:00:11;7.72;;;5.15;;
34236;SDS011;20501;45.956;13.632;2023-07-13T12:02:43;8.30;;;4.90;;
34236;SDS011;20501;45.956;13.632;2023-07-13T12:05:15;8.27;;;4.80;;
34236;SDS011;20501;45.956;13.632;2023-07-13T12:07:43;7.82;;;5.47;;
34236;SDS011;20501;45.956;13.632;2023-07-13T12:13:08;6.32;;;4.72;;
34236;SDS011;20501;45.956;13.632;2023-07-13T12:15:40;7.50;;;4.70;;
34236;SDS011;20501;45.956;13.632;2023-07-13T12:18:12;8.77;;;5.05;;
34236;SDS011;20501;45.956;13.632;2023-07-13T12:20:40;7.65;;;5.10;;
34236;SDS011;20501;45.956;13.632;2023-07-13T12:23:06;6.47;;;4.33;;
34236;SDS011;20501;45.956;13.632;2023-07-13T12:25:44;7.03;;;5.05;;
34236;SDS011;20501;45.956;13.632;2023-07-13T12:28:23;8.90;;;5.93;;
34236;SDS011;20501;45.956;13.632;2023-07-13T12:30:59;11.98;;;6.13;;
34236;SDS011;20501;45.956;13.632;2023-07-13T12:33:29;10.75;;;5.30;;
34236;SDS011;20501;45.956;13.632;2023-07-13T12:35:57;7.43;;;5.50;;
34236;SDS011;20501;45.956;13.632;2023-07-13T12:38:27;9.77;;;6.22;;
34236;SDS011;20501;45.956;13.632;2023-07-13T12:40:55;8.40;;;6.50;;
34236;SDS011;20501;45.956;13.632;2023-07-13T12:43:21;13.47;;;7.50;;
34236;SDS011;20501;45.956;13.632;2023-07-13T12:48:47;10.63;;;6.10;;
34236;SDS011;20501;45.956;13.632;2023-07-13T12:51:14;9.18;;;6.20;;
34236;SDS011;20501;45.956;13.632;2023-07-13T12:53:43;9.70;;;6.40;;
34236;SDS011;20501;45.956;13.632;2023-07-13T12:56:20;11.10;;;6.45;;
34236;SDS011;20501;45.956;13.632;2023-07-13T12:58:48;9.38;;;6.70;;
34236;SDS011;20501;45.956;13.632;2023-07-13T13:01:19;9.48;;;6.00;;
34236;SDS011;20501;45.956;13.632;2023-07-13T13:03:48;7.75;;;6.40;;
34236;SDS011;20501;45.956;13.632;2023-07-13T13:08:48;12.17;;;6.73;;
34236;SDS011;20501;45.956;13.632;2023-07-13T13:11:16;9.18;;;5.53;;
34236;SDS011;20501;45.956;13.632;2023-07-13T13:13:42;10.27;;;6.50;;
34236;SDS011;20501;45.956;13.632;2023-07-13T13:16:19;10.82;;;6.97;;
34236;SDS011;20501;45.956;13.632;2023-07-13T13:18:52;10.90;;;6.35;;
34236;SDS011;20501;45.956;13.632;2023-07-13T13:21:19;17.10;;;7.75;;
34236;SDS011;20501;45.956;13.632;2023-07-13T13:23:46;10.13;;;5.88;;
34236;SDS011;20501;45.956;13.632;2023-07-13T13:26:12;8.60;;;6.25;;
34236;SDS011;20501;45.956;13.632;2023-07-13T13:28:41;10.27;;;6.63;;
34236;SDS011;20501;45.956;13.632;2023-07-13T13:31:09;8.35;;;6.72;;
34236;SDS011;20501;45.956;13.632;2023-07-13T13:33:39;10.10;;;6.10;;
34236;SDS011;20501;45.956;13.632;2023-07-13T13:36:16;8.80;;;6.00;;
34236;SDS011;20501;45.956;13.632;2023-07-13T13:38:44;10.00;;;6.18;;
34236;SDS011;20501;45.956;13.632;2023-07-13T13:41:10;14.00;;;7.73;;
34236;SDS011;20501;45.956;13.632;2023-07-13T13:43:38;9.05;;;6.15;;
34236;SDS011;20501;45.956;13.632;2023-07-13T13:46:05;12.38;;;7.72;;
34236;SDS011;20501;45.956;13.632;2023-07-13T13:48:39;10.63;;;7.30;;
34236;SDS011;20501;45.956;13.632;2023-07-13T13:51:15;8.25;;;6.18;;
34236;SDS011;20501;45.956;13.632;2023-07-13T13:53:46;10.55;;;6.25;;
34236;SDS011;20501;45.956;13.632;2023-07-13T13:56:13;9.95;;;6.45;;
34236;SDS011;20501;45.956;13.632;2023-07-13T14:01:08;12.40;;;6.97;;
34236;SDS011;20501;45.956;13.632;2023-07-13T14:03:37;10.18;;;6.22;;
34236;SDS011;20501;45.956;13.632;2023-07-13T14:06:03;10.20;;;6.87;;
34236;SDS011;20501;45.956;13.632;2023-07-13T14:08:28;9.47;;;6.60;;
34236;SDS011;20501;45.956;13.632;2023-07-13T14:10:55;7.33;;;5.63;;
34236;SDS011;20501;45.956;13.632;2023-07-13T14:13:28;9.57;;;5.85;;
34236;SDS011;20501;45.956;13.632;2023-07-13T14:16:01;11.00;;;6.20;;
34236;SDS011;20501;45.956;13.632;2023-07-13T14:18:26;8.07;;;6.33;;
34236;SDS011;20501;45.956;13.632;2023-07-13T14:20:53;8.90;;;6.35;;
34236;SDS011;20501;45.956;13.632;2023-07-13T14:23:18;9.90;;;5.83;;
34236;SDS011;20501;45.956;13.632;2023-07-13T14:25:45;7.73;;;6.77;;
34236;SDS011;20501;45.956;13.632;2023-07-13T14:31:04;10.63;;;6.45;;
34236;SDS011;20501;45.956;13.632;2023-07-13T14:33:29;12.60;;;7.13;;
34236;SDS011;20501;45.956;13.632;2023-07-13T14:35:55;10.50;;;7.87;;
34236;SDS011;20501;45.956;13.632;2023-07-13T14:38:20;9.73;;;6.73;;
34236;SDS011;20501;45.956;13.632;2023-07-13T14:40:46;11.37;;;7.30;;
34236;SDS011;20501;45.956;13.632;2023-07-13T14:43:12;11.13;;;6.93;;
34236;SDS011;20501;45.956;13.632;2023-07-13T14:45:42;10.07;;;6.25;;
34236;SDS011;20501;45.956;13.632;2023-07-13T14:50:44;16.48;;;6.90;;
34236;SDS011;20501;45.956;13.632;2023-07-13T14:53:11;10.20;;;6.68;;
34236;SDS011;20501;45.956;13.632;2023-07-13T14:55:38;10.48;;;6.32;;
34236;SDS011;20501;45.956;13.632;2023-07-13T14:58:04;12.57;;;7.33;;
34236;SDS011;20501;45.956;13.632;2023-07-13T15:00:29;14.43;;;7.57;;
34236;SDS011;20501;45.956;13.632;2023-07-13T15:05:27;7.65;;;6.40;;
34236;SDS011;20501;45.956;13.632;2023-07-13T15:07:56;9.23;;;6.35;;
34236;SDS011;20501;45.956;13.632;2023-07-13T15:10:23;10.57;;;7.00;;
34236;SDS011;20501;45.956;13.632;2023-07-13T15:12:51;9.07;;;6.60;;
34236;SDS011;20501;45.956;13.632;2023-07-13T15:15:17;10.80;;;7.10;;
34236;SDS011;20501;45.956;13.632;2023-07-13T15:17:43;11.90;;;7.67;;
34236;SDS011;20501;45.956;13.632;2023-07-13T15:22:45;13.80;;;7.20;;
34236;SDS011;20501;45.956;13.632;2023-07-13T15:25:14;9.07;;;7.30;;
34236;SDS011;20501;45.956;13.632;2023-07-13T15:27:41;11.18;;;7.20;;
34236;SDS011;20501;45.956;13.632;2023-07-13T15:30:07;10.87;;;8.10;;
34236;SDS011;20501;45.956;13.632;2023-07-13T15:32:32;12.80;;;7.50;;
34236;SDS011;20501;45.956;13.632;2023-07-13T15:34:58;12.83;;;8.37;;
34236;SDS011;20501;45.956;13.632;2023-07-13T15:37:24;11.93;;;7.17;;
34236;SDS011;20501;45.956;13.632;2023-07-13T15:39:49;13.00;;;7.87;;
34236;SDS011;20501;45.956;13.632;2023-07-13T15:42:15;20.37;;;8.07;;
34236;SDS011;20501;45.956;13.632;2023-07-13T15:44:42;13.52;;;8.18;;
34236;SDS011;20501;45.956;13.632;2023-07-13T15:47:11;16.73;;;7.90;;
34236;SDS011;20501;45.956;13.632;2023-07-13T15:49:38;11.20;;;7.05;;
34236;SDS011;20501;45.956;13.632;2023-07-13T15:52:04;16.20;;;8.25;;
34236;SDS011;20501;45.956;13.632;2023-07-13T15:54:30;9.55;;;7.05;;
34236;SDS011;20501;45.956;13.632;2023-07-13T15:56:56;13.80;;;7.30;;
34236;SDS011;20501;45.956;13.632;2023-07-13T15:59:26;12.88;;;7.43;;
34236;SDS011;20501;45.956;13.632;2023-07-13T16:01:52;9.43;;;7.07;;
34236;SDS011;20501;45.956;13.632;2023-07-13T16:04:17;12.83;;;7.97;;
34236;SDS011;20501;45.956;13.632;2023-07-13T16:09:13;11.77;;;8.40;;